Time;durP1;ratioP1;P1;durP2;ratioP2;P2;SDS_P1;SDS_P2;PMS_P1;PMS_P2;Temp;Humidity;BMP_temperature;BMP_pressure;BME280_temperature;BME280_humidity;BME280_pressure;Samples;Min_cycle;Max_cycle;Signal;HPM_P1;HPM_P2
2022/03/08 00:02:17;;;;;;;12.90;9.43;;;;;;;2.73;100.00;100469.44;4993338;28;20026;-82
2022/03/08 00:04:42;;;;;;;14.87;9.67;;;;;;;2.70;100.00;100477.75;4993134;28;20088;-83
2022/03/08 00:07:08;;;;;;;14.50;9.43;;;;;;;2.64;100.00;100473.91;5011026;28;20034;-83
2022/03/08 00:09:33;;;;;;;15.80;9.33;;;;;;;2.49;100.00;100455.88;4993720;28;20030;-83
2022/03/08 00:11:59;;;;;;;13.60;8.77;;;;;;;2.51;100.00;100483.25;4993385;28;20052;-82
2022/03/08 00:14:25;;;;;;;13.97;9.53;;;;;;;2.37;100.00;100472.09;4993684;28;20033;-84
2022/03/08 00:16:50;;;;;;;15.03;9.67;;;;;;;2.39;100.00;100465.47;4993730;28;20030;-77
2022/03/08 00:19:16;;;;;;;15.73;9.50;;;;;;;2.29;100.00;100460.47;4993467;28;20061;-78
2022/03/08 00:21:41;;;;;;;17.80;10.60;;;;;;;2.38;100.00;100466.22;5011127;28;20037;-77
2022/03/08 00:24:07;;;;;;;13.23;9.27;;;;;;;2.42;100.00;100450.38;5011154;28;20022;-77
2022/03/08 00:26:33;;;;;;;15.87;9.23;;;;;;;2.55;100.00;100456.31;5010770;28;20451;-79
2022/03/08 00:28:58;;;;;;;22.27;10.83;;;;;;;2.56;100.00;100445.34;5010996;28;20124;-82
2022/03/08 00:31:24;;;;;;;17.57;9.20;;;;;;;2.66;100.00;100442.63;4993608;28;20389;-82
2022/03/08 00:33:49;;;;;;;17.43;10.23;;;;;;;2.49;100.00;100443.16;5009907;28;20038;-79
2022/03/08 00:36:15;;;;;;;15.18;9.52;;;;;;;2.53;100.00;100450.22;5011058;28;20034;-79
2022/03/08 00:38:40;;;;;;;18.20;9.83;;;;;;;2.58;100.00;100449.78;5010978;28;20042;-78
2022/03/08 00:41:06;;;;;;;16.80;9.40;;;;;;;2.58;100.00;100433.59;5010356;28;20485;-78
2022/03/08 00:43:31;;;;;;;15.77;10.17;;;;;;;2.54;100.00;100440.16;5010804;28;20033;-78
2022/03/08 00:45:57;;;;;;;21.70;10.60;;;;;;;2.66;100.00;100451.97;4993336;28;20121;-80
2022/03/08 00:48:23;;;;;;;21.63;9.70;;;;;;;2.67;100.00;100439.31;5011026;28;20026;-79
2022/03/08 00:50:49;;;;;;;26.73;10.30;;;;;;;2.66;100.00;100437.53;5010639;28;20412;-78
2022/03/08 00:53:15;;;;;;;25.53;11.67;;;;;;;2.68;100.00;100453.84;5010997;28;20469;-79
2022/03/08 00:55:41;;;;;;;19.92;10.80;;;;;;;2.55;100.00;100429.16;5010558;28;20137;-80
2022/03/08 00:58:07;;;;;;;19.97;10.97;;;;;;;2.55;100.00;100447.00;5010981;28;20512;-80
2022/03/08 01:00:34;;;;;;;19.37;11.37;;;;;;;2.41;100.00;100438.41;5010743;28;20034;-78
2022/03/08 01:03:00;;;;;;;19.73;10.03;;;;;;;2.44;100.00;100437.72;5010635;28;20511;-78
2022/03/08 01:05:26;;;;;;;17.13;9.47;;;;;;;2.50;100.00;100450.03;5010526;28;20058;-78
2022/03/08 01:07:52;;;;;;;15.53;10.07;;;;;;;2.53;100.00;100445.13;5013025;28;20464;-79
2022/03/08 01:10:20;;;;;;;23.07;9.67;;;;;;;2.31;100.00;100402.03;5014250;28;20041;-80
2022/03/08 01:12:47;;;;;;;19.10;9.87;;;;;;;2.58;100.00;100442.13;4996923;28;20032;-80
2022/03/08 01:15:13;;;;;;;20.43;10.90;;;;;;;2.73;100.00;100444.84;5014490;28;20045;-79
2022/03/08 01:17:39;;;;;;;20.77;10.50;;;;;;;2.71;100.00;100446.38;4996776;28;20022;-84
2022/03/08 01:20:07;;;;;;;18.20;9.97;;;;;;;2.64;100.00;100434.03;4997124;28;20022;-81
2022/03/08 01:22:33;;;;;;;19.77;10.63;;;;;;;2.69;100.00;100447.06;5014699;28;20088;-79
2022/03/08 01:24:58;;;;;;;23.05;9.77;;;;;;;2.67;100.00;100446.09;5014099;28;20041;-81
2022/03/08 01:27:25;;;;;;;19.97;9.97;;;;;;;2.56;100.00;100445.34;5014639;28;20037;-81
2022/03/08 01:29:50;;;;;;;15.70;9.17;;;;;;;2.68;100.00;100440.19;5014347;28;20034;-81
2022/03/08 01:32:16;;;;;;;15.17;8.53;;;;;;;2.79;100.00;100436.72;4996404;28;20092;-80
2022/03/08 01:34:42;;;;;;;16.43;8.90;;;;;;;2.81;100.00;100431.72;5014443;28;20034;-81
2022/03/08 01:37:07;;;;;;;13.27;9.00;;;;;;;2.89;100.00;100440.75;5014362;28;20034;-81
2022/03/08 01:39:33;;;;;;;15.33;9.47;;;;;;;2.64;100.00;100388.16;5014118;28;20488;-81
2022/03/08 01:41:58;;;;;;;14.35;8.70;;;;;;;2.70;100.00;100391.06;5013968;28;20026;-79
2022/03/08 01:44:24;;;;;;;11.93;8.13;;;;;;;2.65;100.00;100384.78;5014462;28;20129;-81
2022/03/08 01:46:50;;;;;;;11.13;7.97;;;;;;;2.86;100.00;100417.63;4996499;28;20030;-81
2022/03/08 01:49:15;;;;;;;12.82;7.20;;;;;;;3.03;100.00;100437.47;5014136;28;20084;-78
2022/03/08 01:51:43;;;;;;;10.57;7.35;;;;;;;2.83;100.00;100404.66;4996111;28;20065;-79
2022/03/08 01:54:10;;;;;;;12.43;7.40;;;;;;;3.00;100.00;100442.34;4996152;28;20563;-80
2022/03/08 01:56:36;;;;;;;13.63;7.93;;;;;;;2.85;100.00;100408.19;4996464;28;20117;-78
2022/03/08 01:59:03;;;;;;;13.43;7.32;;;;;;;2.89;100.00;100422.91;5013803;28;20037;-85
2022/03/08 02:01:29;;;;;;;14.52;7.75;;;;;;;2.99;100.00;100432.06;4996240;28;20130;-87
2022/03/08 02:03:54;;;;;;;12.20;6.95;;;;;;;2.95;100.00;100446.25;4996141;28;20073;-83
2022/03/08 02:06:20;;;;;;;11.68;7.60;;;;;;;2.90;100.00;100442.53;5013467;28;20101;-78
2022/03/08 02:08:45;;;;;;;12.50;7.15;;;;;;;2.95;100.00;100447.94;4994954;28;20045;-83
2022/03/08 02:11:12;;;;;;;14.35;7.55;;;;;;;2.85;100.00;100420.94;5004640;28;20042;-85
2022/03/08 02:13:38;;;;;;;14.43;6.75;;;;;;;2.96;100.00;100448.03;4975826;28;20406;-85
2022/03/08 02:16:05;;;;;;;22.65;7.32;;;;;;;2.88;100.00;100444.97;4979031;28;20041;-89
2022/03/08 02:18:31;;;;;;;13.82;6.82;;;;;;;2.96;100.00;100449.72;4995981;28;21073;-90
2022/03/08 02:20:59;;;;;;;20.48;8.73;;;;;;;2.95;100.00;100455.59;4975777;28;20089;-85
2022/03/08 02:23:24;;;;;;;14.10;7.18;;;;;;;2.78;100.00;100455.34;4991644;28;20061;-86
2022/03/08 02:25:50;;;;;;;13.98;7.85;;;;;;;2.67;100.00;100458.84;4975804;28;20062;-89
2022/03/08 02:28:15;;;;;;;14.43;7.50;;;;;;;2.46;100.00;100440.41;4975838;28;20093;-85
2022/03/08 02:30:41;;;;;;;12.47;7.83;;;;;;;2.29;100.00;100435.00;4975370;28;20034;-90
2022/03/08 02:33:07;;;;;;;11.57;7.73;;;;;;;2.37;100.00;100445.75;4975646;28;20141;-86
2022/03/08 02:35:33;;;;;;;10.13;6.77;;;;;;;2.34;100.00;100437.88;4991483;28;20098;-82
2022/03/08 02:38:03;;;;;;;12.13;8.13;;;;;;;2.21;100.00;100453.97;4992846;28;20030;-89
2022/03/08 02:40:38;;;;;;;13.10;7.53;;;;;;;2.06;100.00;100452.13;4975859;28;20030;-87
2022/03/08 02:43:06;;;;;;;12.60;7.60;;;;;;;1.89;100.00;100452.59;4961612;28;20050;-84
2022/03/08 02:45:32;;;;;;;12.80;7.70;;;;;;;1.83;100.00;100462.31;4991413;28;20033;-85
2022/03/08 02:47:58;;;;;;;11.33;7.53;;;;;;;1.65;100.00;100434.78;4991186;28;20026;-86
2022/03/08 02:50:23;;;;;;;13.13;8.03;;;;;;;1.75;100.00;100465.19;4974634;28;20073;-86
2022/03/08 02:52:51;;;;;;;13.30;8.27;;;;;;;1.43;100.00;100425.59;4974963;28;20030;-85
2022/03/08 02:55:21;;;;;;;15.33;9.20;;;;;;;1.72;100.00;100475.19;4975117;28;20066;-83
2022/03/08 02:57:48;;;;;;;12.53;7.83;;;;;;;1.61;100.00;100455.69;5005200;28;20036;-87
2022/03/08 03:00:15;;;;;;;12.07;7.77;;;;;;;1.53;100.00;100446.63;4975160;28;20030;-88
2022/03/08 03:02:41;;;;;;;14.63;8.23;;;;;;;1.59;100.00;100472.50;4996477;28;20408;-87
2022/03/08 03:05:07;;;;;;;12.83;7.90;;;;;;;1.55;100.00;100468.84;4993982;28;21427;-82
2022/03/08 03:07:33;;;;;;;12.47;7.37;;;;;;;1.31;100.00;100419.63;5003715;28;20037;-83
2022/03/08 03:09:59;;;;;;;12.67;7.60;;;;;;;1.65;100.00;100478.03;4992327;28;20037;-85
2022/03/08 03:12:25;;;;;;;12.57;7.40;;;;;;;1.42;100.00;100438.19;4993533;28;20038;-84
2022/03/08 03:14:50;;;;;;;12.17;7.57;;;;;;;1.61;100.00;100483.69;4994103;28;20033;-83
2022/03/08 03:17:17;;;;;;;12.13;7.87;;;;;;;1.42;100.00;100449.28;5010620;28;20420;-83
2022/03/08 03:19:43;;;;;;;14.80;7.63;;;;;;;1.62;100.00;100495.66;4993592;28;20524;-83
2022/03/08 03:22:09;;;;;;;11.20;7.47;;;;;;;1.67;100.00;100496.88;4994035;28;20037;-85
2022/03/08 03:24:35;;;;;;;11.90;7.90;;;;;;;1.77;100.00;100504.38;4950516;29;20039;-83
2022/03/08 03:27:00;;;;;;;13.40;8.23;;;;;;;1.82;100.00;100501.28;4950458;29;20044;-83
2022/03/08 03:29:26;;;;;;;13.57;7.47;;;;;;;1.80;100.00;100485.91;4950254;28;20071;-84
2022/03/08 03:31:51;;;;;;;11.00;7.73;;;;;;;1.91;100.00;100486.69;4932381;29;20036;-89
2022/03/08 03:34:17;;;;;;;14.03;8.03;;;;;;;2.03;100.00;100491.75;4915485;29;20054;-84
2022/03/08 03:36:42;;;;;;;13.10;7.50;;;;;;;2.09;100.00;100488.00;4933673;29;20027;-85
2022/03/08 03:39:08;;;;;;;14.87;6.70;;;;;;;2.08;100.00;100483.69;4930941;29;20048;-82
2022/03/08 03:41:34;;;;;;;10.10;6.00;;;;;;;2.16;100.00;100494.41;4915206;29;20028;-84
2022/03/08 03:43:59;;;;;;;17.97;7.40;;;;;;;2.19;100.00;100488.63;4930835;29;20043;-83
2022/03/08 03:46:25;;;;;;;15.67;8.03;;;;;;;2.19;100.00;100488.63;4915182;29;20111;-83
2022/03/08 03:48:50;;;;;;;20.50;8.40;;;;;;;1.99;100.00;100477.91;4930802;29;20031;-82
2022/03/08 03:51:16;;;;;;;20.53;9.10;;;;;;;1.98;100.00;100457.44;4931086;29;20047;-82
2022/03/08 03:53:43;;;;;;;17.23;7.83;;;;;;;2.21;100.00;100485.41;4930983;29;20032;-83
2022/03/08 03:56:09;;;;;;;12.37;7.67;;;;;;;2.19;100.00;100483.53;4975514;28;20046;-84
2022/03/08 03:58:34;;;;;;;18.33;7.67;;;;;;;2.05;100.00;100477.47;4973795;28;20030;-84
2022/03/08 04:01:00;;;;;;;14.00;6.60;;;;;;;1.92;100.00;100445.19;4991258;28;20042;-84
2022/03/08 04:03:26;;;;;;;12.93;6.37;;;;;;;2.16;100.00;100468.06;4974366;28;20113;-84
2022/03/08 04:05:52;;;;;;;13.77;6.37;;;;;;;2.20;100.00;100477.69;4974685;28;20185;-84
2022/03/08 04:08:20;;;;;;;13.93;6.20;;;;;;;2.13;100.00;100466.19;4990645;28;20427;-84
2022/03/08 04:10:48;;;;;;;13.63;6.20;;;;;;;2.16;100.00;100480.78;4990571;28;20040;-85
2022/03/08 04:13:14;;;;;;;20.87;6.93;;;;;;;2.12;100.00;100477.16;4991784;28;20030;-83
2022/03/08 04:15:39;;;;;;;15.00;6.77;;;;;;;2.23;100.00;100477.88;4973902;28;20560;-83
2022/03/08 04:18:05;;;;;;;10.97;6.10;;;;;;;2.18;100.00;100484.31;4973956;28;20051;-83
2022/03/08 04:20:30;;;;;;;16.10;6.57;;;;;;;1.99;100.00;100451.59;4991552;28;20052;-84
2022/03/08 04:22:56;;;;;;;12.40;6.43;;;;;;;2.23;100.00;100483.88;4974402;28;20077;-83
2022/03/08 04:25:21;;;;;;;16.73;6.67;;;;;;;2.24;100.00;100489.84;4974294;28;20503;-86
2022/03/08 04:27:47;;;;;;;13.57;6.22;;;;;;;2.35;100.00;100483.84;4974069;28;20030;-87
2022/03/08 04:30:12;;;;;;;13.33;6.77;;;;;;;2.29;100.00;100480.84;4973931;28;20528;-86
2022/03/08 04:32:38;;;;;;;13.87;6.20;;;;;;;2.38;100.00;100476.44;4973993;28;20130;-85
2022/03/08 04:35:05;;;;;;;12.70;5.87;;;;;;;2.36;100.00;100488.16;4974197;28;20034;-85
2022/03/08 04:37:31;;;;;;;10.30;6.20;;;;;;;2.43;100.00;100475.09;4974002;28;20121;-86
2022/03/08 04:39:56;;;;;;;12.27;6.13;;;;;;;2.48;100.00;100482.16;4974067;28;20112;-85
2022/03/08 04:42:22;;;;;;;17.47;7.00;;;;;;;2.46;100.00;100476.94;4973172;28;20131;-85
2022/03/08 04:44:47;;;;;;;14.77;6.53;;;;;;;2.40;100.00;100476.53;4973822;28;20484;-85
2022/03/08 04:47:12;;;;;;;19.35;7.45;;;;;;;2.39;100.00;100485.84;4969548;28;20045;-85
2022/03/08 04:49:38;;;;;;;18.53;6.33;;;;;;;2.48;100.00;100493.25;4953149;28;20046;-84
2022/03/08 04:52:04;;;;;;;15.87;8.70;;;;;;;2.36;100.00;100488.16;4953559;28;20078;-82
2022/03/08 04:54:29;;;;;;;12.93;8.17;;;;;;;2.24;100.00;100487.28;4966238;28;20389;-83
2022/03/08 04:56:55;;;;;;;90.00;55.27;;;;;;;2.15;100.00;100494.31;5008346;28;20030;-83
2022/03/08 04:59:20;;;;;;;38.87;26.03;;;;;;;2.15;100.00;100507.03;5008622;28;20531;-84
2022/03/08 05:01:46;;;;;;;16.00;10.50;;;;;;;1.99;100.00;100500.84;5008436;28;20444;-84
2022/03/08 05:04:11;;;;;;;70.60;45.90;;;;;;;1.91;100.00;100505.38;4991987;28;20081;-84
2022/03/08 05:06:37;;;;;;;23.00;15.07;;;;;;;1.73;100.00;100487.13;4991861;28;20037;-84
2022/03/08 05:09:03;;;;;;;30.30;22.33;;;;;;;1.82;100.00;100514.91;5008307;28;20045;-86
2022/03/08 05:11:29;;;;;;;22.77;16.73;;;;;;;1.85;100.00;100511.69;4991990;28;20094;-83
2022/03/08 05:13:54;;;;;;;23.33;16.53;;;;;;;1.82;100.00;100514.00;4991925;28;20061;-87
2022/03/08 05:16:20;;;;;;;23.57;15.97;;;;;;;1.82;100.00;100506.38;4984071;28;20146;-85
2022/03/08 05:18:45;;;;;;;19.90;15.13;;;;;;;1.70;100.00;100497.06;4987317;28;20488;-82
2022/03/08 05:21:11;;;;;;;20.20;14.27;;;;;;;1.43;100.00;100461.22;4992560;28;20034;-82
2022/03/08 05:23:36;;;;;;;19.13;12.10;;;;;;;1.67;100.00;100496.88;4993065;28;20026;-84
2022/03/08 05:26:04;;;;;;;18.87;11.13;;;;;;;1.75;100.00;100512.69;4993076;28;20037;-83
2022/03/08 05:28:31;;;;;;;15.80;8.80;;;;;;;1.85;100.00;100511.69;4992210;28;20507;-84
2022/03/08 05:30:56;;;;;;;20.07;13.67;;;;;;;2.00;100.00;100522.97;4993031;28;20034;-81
2022/03/08 05:33:22;;;;;;;16.17;10.40;;;;;;;1.96;100.00;100504.81;4993000;28;20034;-85
2022/03/08 05:35:47;;;;;;;16.27;9.03;;;;;;;2.18;100.00;100527.63;4992822;28;20472;-85
2022/03/08 05:38:13;;;;;;;16.60;8.80;;;;;;;2.08;100.00;100534.63;4992947;28;20132;-85
2022/03/08 05:40:39;;;;;;;16.17;8.73;;;;;;;2.01;100.00;100518.78;4992929;28;20077;-85
2022/03/08 05:43:05;;;;;;;15.13;9.80;;;;;;;2.17;100.00;100541.13;4992838;28;20487;-85
2022/03/08 05:45:31;;;;;;;14.80;9.97;;;;;;;2.27;100.00;100543.56;4992789;28;20113;-85
2022/03/08 05:47:57;;;;;;;15.60;9.47;;;;;;;2.11;100.00;100546.69;4993067;28;20485;-85
2022/03/08 05:50:22;;;;;;;14.77;10.27;;;;;;;2.09;100.00;100553.31;4992864;28;20025;-85
2022/03/08 05:52:48;;;;;;;16.17;10.47;;;;;;;2.00;100.00;100545.91;4992752;28;20056;-84
2022/03/08 05:55:13;;;;;;;16.50;11.10;;;;;;;2.11;100.00;100554.31;4996268;28;20030;-85
2022/03/08 05:57:39;;;;;;;15.87;9.83;;;;;;;1.85;100.00;100487.13;4996190;28;20032;-85
2022/03/08 06:00:06;;;;;;;18.07;10.20;;;;;;;2.32;100.00;100554.97;4995669;28;20033;-84
2022/03/08 06:02:32;;;;;;;16.40;10.60;;;;;;;2.07;100.00;100496.31;5011949;28;20034;-84
2022/03/08 06:04:57;;;;;;;15.67;10.50;;;;;;;2.43;100.00;100555.75;4995985;28;20030;-86
2022/03/08 06:07:23;;;;;;;15.00;10.50;;;;;;;2.37;100.00;100553.63;4996241;28;20072;-85
2022/03/08 06:09:49;;;;;;;19.37;10.60;;;;;;;1.93;100.00;100506.38;4995946;28;20389;-85
2022/03/08 06:12:15;;;;;;;14.57;9.97;;;;;;;2.08;100.00;100516.78;4995226;28;20030;-83
2022/03/08 06:14:41;;;;;;;15.53;9.80;;;;;;;2.32;100.00;100546.44;4995703;28;20076;-81
2022/03/08 06:17:07;;;;;;;14.83;9.70;;;;;;;2.32;100.00;100534.59;5001122;28;20033;-81
2022/03/08 06:19:33;;;;;;;15.63;10.50;;;;;;;2.35;100.00;100556.84;5013166;28;20060;-85
2022/03/08 06:21:59;;;;;;;27.17;15.23;;;;;;;2.35;100.00;100557.72;5013437;28;20030;-84
2022/03/08 06:24:24;;;;;;;14.67;9.57;;;;;;;2.18;100.00;100528.53;5013073;28;20502;-81
2022/03/08 06:26:50;;;;;;;14.77;9.60;;;;;;;2.40;100.00;100556.38;4987185;28;20462;-82
2022/03/08 06:29:15;;;;;;;15.67;10.67;;;;;;;2.43;100.00;100574.44;4993554;28;20412;-86
2022/03/08 06:31:41;;;;;;;25.13;20.38;;;;;;;2.45;100.00;100563.50;4991713;28;20034;-86
2022/03/08 06:34:06;;;;;;;16.20;9.90;;;;;;;2.42;100.00;100570.13;4985652;28;20026;-86
2022/03/08 06:36:34;;;;;;;15.63;10.17;;;;;;;2.32;100.00;100579.53;5002980;28;20045;-86
2022/03/08 06:39:00;;;;;;;76.57;43.90;;;;;;;2.03;100.00;100535.94;4986076;28;20034;-86
2022/03/08 06:41:26;;;;;;;202.30;99.73;;;;;;;2.39;100.00;100575.03;4985453;28;20022;-86
2022/03/08 06:43:52;;;;;;;75.30;35.42;;;;;;;2.31;100.00;100559.97;5003152;28;20026;-84
2022/03/08 06:46:17;;;;;;;52.90;26.80;;;;;;;2.41;100.00;100580.22;4984021;28;20030;-83
2022/03/08 06:48:43;;;;;;;380.30;214.80;;;;;;;2.03;100.00;100555.41;5003362;28;20464;-83
2022/03/08 06:51:08;;;;;;;63.50;42.57;;;;;;;2.35;100.00;100585.75;5002212;28;20034;-83
2022/03/08 06:53:34;;;;;;;41.23;28.37;;;;;;;2.37;100.00;100580.78;5001800;28;20026;-87
2022/03/08 06:55:59;;;;;;;13.27;8.70;;;;;;;2.36;100.00;100584.97;5002834;28;20073;-79
2022/03/08 06:58:26;;;;;;;35.47;23.60;;;;;;;2.31;100.00;100591.41;4984212;28;20410;-82
2022/03/08 07:00:52;;;;;;;12.90;8.83;;;;;;;2.20;100.00;100570.25;5001727;28;20025;-81
2022/03/08 07:03:18;;;;;;;13.73;9.10;;;;;;;2.17;100.00;100581.88;4985526;28;20034;-79
2022/03/08 07:05:43;;;;;;;18.90;12.03;;;;;;;2.13;100.00;100574.78;4985015;28;20116;-81
2022/03/08 07:08:09;;;;;;;26.87;21.63;;;;;;;2.08;100.00;100567.72;4992418;28;20040;-80
2022/03/08 07:10:35;;;;;;;16.83;11.70;;;;;;;1.96;100.00;100520.09;5006161;28;20109;-78
2022/03/08 07:13:00;;;;;;;14.50;11.50;;;;;;;2.19;100.00;100562.50;5005048;28;20036;-82
2022/03/08 07:15:26;;;;;;;11.30;7.93;;;;;;;2.34;100.00;100550.84;5010344;28;20029;-90
2022/03/08 07:17:51;;;;;;;11.83;8.10;;;;;;;2.33;100.00;100551.66;4988222;28;20050;-89
2022/03/08 07:20:17;;;;;;;10.43;7.07;;;;;;;2.40;100.00;100555.50;4983795;28;20475;-82
2022/03/08 07:22:42;;;;;;;10.80;8.35;;;;;;;2.59;100.00;100580.63;5002994;28;20448;-83
2022/03/08 07:25:09;;;;;;;11.37;7.63;;;;;;;2.61;100.00;100556.13;4983829;28;20034;-83
2022/03/08 07:27:35;;;;;;;11.37;7.07;;;;;;;2.71;100.00;100570.41;4984639;28;20503;-84
2022/03/08 07:30:02;;;;;;;10.17;6.80;;;;;;;2.68;100.00;100568.53;4979661;28;20125;-83
2022/03/08 07:32:28;;;;;;;11.87;9.30;;;;;;;2.67;100.00;100576.97;4987261;28;20089;-81
2022/03/08 07:34:53;;;;;;;7.97;5.38;;;;;;;2.54;100.00;100559.03;4987519;28;20038;-81
2022/03/08 07:37:19;;;;;;;9.18;5.70;;;;;;;2.16;100.00;100502.03;4992119;28;20061;-80
2022/03/08 07:39:44;;;;;;;8.83;5.77;;;;;;;2.35;100.00;100531.38;4992166;28;20034;-81
2022/03/08 07:42:10;;;;;;;9.50;5.85;;;;;;;2.36;100.00;100553.53;4992218;28;20027;-81
2022/03/08 07:44:37;;;;;;;9.57;6.10;;;;;;;2.54;100.00;100561.56;4974758;28;20035;-78
2022/03/08 07:47:03;;;;;;;9.10;5.88;;;;;;;2.54;100.00;100562.47;4971746;28;20092;-78
2022/03/08 07:49:29;;;;;;;8.45;5.47;;;;;;;2.30;100.00;100507.25;4992081;28;20026;-78
2022/03/08 07:51:54;;;;;;;8.27;5.90;;;;;;;2.62;100.00;100557.91;5004274;28;20500;-77
2022/03/08 07:54:20;;;;;;;8.87;6.10;;;;;;;2.79;100.00;100542.91;5011251;28;20484;-78
2022/03/08 07:56:45;;;;;;;9.00;4.95;;;;;;;2.70;100.00;100504.91;5011298;28;20037;-77
2022/03/08 07:59:11;;;;;;;11.68;5.55;;;;;;;2.81;100.00;100513.31;5011677;28;20025;-78
2022/03/08 08:01:37;;;;;;;7.80;5.10;;;;;;;3.05;100.00;100543.03;5011377;28;20116;-77
2022/03/08 08:04:03;;;;;;;7.85;4.93;;;;;;;3.06;100.00;100543.91;5011217;28;20507;-80
2022/03/08 08:06:28;;;;;;;6.93;4.60;;;;;;;2.70;100.00;100508.34;5011149;28;20374;-80
2022/03/08 08:08:53;;;;;;;10.07;4.78;;;;;;;2.51;100.00;100462.00;4993676;28;20040;-80
2022/03/08 08:11:20;;;;;;;8.55;4.82;;;;;;;3.01;100.00;100541.03;5011029;28;20030;-80
2022/03/08 08:13:48;;;;;;;10.93;5.60;;;;;;;2.92;100.00;100497.06;5011058;28;20476;-80
2022/03/08 08:16:14;;;;;;;20.70;7.38;;;;;;;3.17;100.00;100542.09;5010948;28;20075;-79
2022/03/08 08:18:39;;;;;;;17.80;7.55;;;;;;;3.23;100.00;100520.44;5011566;28;20049;-80
2022/03/08 08:21:05;;;;;;;10.45;5.47;;;;;;;3.15;100.00;100519.00;5011121;28;20038;-80
2022/03/08 08:23:31;;;;;;;8.88;4.63;;;;;;;3.12;100.00;100500.97;5010886;28;20022;-80
2022/03/08 08:25:57;;;;;;;8.50;5.00;;;;;;;3.37;100.00;100538.34;5011007;28;20512;-79
2022/03/08 08:28:22;;;;;;;6.05;4.20;;;;;;;3.46;100.00;100530.41;4993257;28;20061;-78
2022/03/08 08:30:47;;;;;;;6.10;4.55;;;;;;;3.44;100.00;100532.88;5004770;28;20058;-78
2022/03/08 08:33:13;;;;;;;10.90;5.72;;;;;;;3.27;100.00;100508.75;4991219;28;20042;-82
2022/03/08 08:35:39;;;;;;;5.95;4.38;;;;;;;3.51;100.00;100512.03;4991189;28;20034;-82
2022/03/08 08:38:05;;;;;;;9.35;4.80;;;;;;;3.53;100.00;100518.16;4991102;28;20034;-82
2022/03/08 08:40:31;;;;;;;31.98;8.75;;;;;;;3.50;100.00;100501.75;4973971;28;20424;-82
2022/03/08 08:42:57;;;;;;;10.93;6.80;;;;;;;3.62;100.00;100522.09;4991282;28;20037;-82
2022/03/08 08:45:23;;;;;;;9.52;4.38;;;;;;;3.61;100.00;100523.75;4977093;28;20030;-83
2022/03/08 08:47:48;;;;;;;13.77;6.95;;;;;;;3.67;100.00;100520.72;5000008;28;20041;-83
2022/03/08 08:50:14;;;;;;;14.65;5.88;;;;;;;3.77;100.00;100523.09;4999840;28;20137;-83
2022/03/08 08:52:39;;;;;;;13.00;5.90;;;;;;;3.58;100.00;100492.94;4984112;28;20026;-83
2022/03/08 08:55:05;;;;;;;20.13;6.05;;;;;;;3.75;100.00;100529.78;5000224;28;20401;-78
2022/03/08 08:57:30;;;;;;;28.95;15.80;;;;;;;3.83;100.00;100520.06;5001574;28;20503;-78
2022/03/08 08:59:56;;;;;;;21.13;10.80;;;;;;;3.75;100.00;100522.13;4986813;28;20535;-80
2022/03/08 09:02:21;;;;;;;9.05;5.10;;;;;;;3.22;100.00;100431.91;4986125;28;20029;-78
2022/03/08 09:04:47;;;;;;;19.85;14.35;;;;;;;3.84;100.00;100520.16;5000841;28;20050;-78
2022/03/08 09:07:12;;;;;;;15.70;12.38;;;;;;;3.88;100.00;100523.78;4981789;28;20035;-78
2022/03/08 09:09:38;;;;;;;10.00;4.85;;;;;;;3.53;100.00;100473.88;4966274;28;20041;-77
2022/03/08 09:12:04;;;;;;;8.43;5.60;;;;;;;3.80;100.00;100507.06;5000321;28;20374;-78
2022/03/08 09:14:30;;;;;;;9.55;6.63;;;;;;;3.79;100.00;100518.06;4999577;28;20030;-78
2022/03/08 09:16:55;;;;;;;7.63;5.50;;;;;;;3.84;100.00;100520.16;5001457;28;20068;-77
2022/03/08 09:19:21;;;;;;;10.88;6.78;;;;;;;3.64;100.00;100493.34;4999266;28;20101;-77
2022/03/08 09:21:47;;;;;;;8.95;4.88;;;;;;;3.78;100.00;100516.34;5001243;28;20034;-81
2022/03/08 09:24:12;;;;;;;9.18;5.95;;;;;;;3.73;100.00;100499.03;4991246;28;20039;-81
2022/03/08 09:26:37;;;;;;;7.07;4.72;;;;;;;3.67;100.00;100508.84;5000699;28;20037;-82
2022/03/08 09:29:03;;;;;;;6.97;4.97;;;;;;;3.69;100.00;100512.38;5012090;28;20057;-82
2022/03/08 09:31:28;;;;;;;8.48;5.35;;;;;;;3.75;100.00;100521.22;4983785;28;20039;-81
2022/03/08 09:33:54;;;;;;;10.60;7.55;;;;;;;3.73;100.00;100504.13;4984547;28;20033;-81
2022/03/08 09:36:19;;;;;;;9.55;5.90;;;;;;;3.70;100.00;100493.72;5014188;28;20060;-81
2022/03/08 09:38:45;;;;;;;11.98;6.43;;;;;;;3.86;100.00;100517.69;4996083;28;20397;-82
2022/03/08 09:41:11;;;;;;;9.20;6.43;;;;;;;3.98;100.00;100510.81;4987033;28;20038;-81
2022/03/08 09:43:38;;;;;;;14.10;9.40;;;;;;;3.81;100.00;100480.75;4994176;28;20034;-82
2022/03/08 09:46:07;;;;;;;8.05;5.70;;;;;;;4.07;100.00;100512.19;4994349;28;20092;-81
2022/03/08 09:48:33;;;;;;;9.23;6.78;;;;;;;4.14;100.00;100499.91;4994311;28;20026;-83
2022/03/08 09:51:03;;;;;;;10.88;6.03;;;;;;;4.32;100.00;100518.06;4993913;28;20417;-83
2022/03/08 09:53:29;;;;;;;10.00;7.30;;;;;;;4.36;100.00;100508.91;4991699;28;20034;-80
2022/03/08 09:56:03;;;;;;;13.38;6.63;;;;;;;4.47;100.00;100513.00;5013729;28;20412;-80
2022/03/08 09:58:29;;;;;;;10.27;7.43;;;;;;;4.52;100.00;100513.31;4992395;28;20113;-83
2022/03/08 10:00:58;;;;;;;10.30;6.65;;;;;;;4.26;99.95;100474.25;4966105;28;20130;-83
2022/03/08 10:03:36;;;;;;;27.55;16.67;;;;;;;4.51;100.00;100520.09;4955549;28;20422;-81
2022/03/08 10:06:05;;;;;;;13.52;9.38;;;;;;;4.69;100.00;100510.09;4971428;28;20042;-82
2022/03/08 10:08:31;;;;;;;14.60;11.35;;;;;;;4.80;98.48;100513.34;4970533;28;20030;-81
2022/03/08 10:11:00;;;;;;;22.17;8.35;;;;;;;4.63;97.97;100496.09;4971476;28;20042;-82
2022/03/08 10:13:29;;;;;;;13.85;9.23;;;;;;;4.53;98.15;100486.97;4955874;28;20027;-82
2022/03/08 10:16:33;;;;;;;27.90;12.50;;;;;;;4.66;99.04;100520.16;4971459;28;20035;-81
2022/03/08 10:19:02;;;;;;;13.23;8.40;;;;;;;4.69;97.15;100525.44;4891953;29;20097;-81
2022/03/08 10:21:33;;;;;;;10.55;6.85;;;;;;;4.66;98.77;100512.50;4877547;29;20075;-88
2022/03/08 10:24:04;;;;;;;15.57;9.25;;;;;;;4.67;98.39;100529.63;4851454;29;20128;-86
2022/03/08 10:26:30;;;;;;;13.15;7.35;;;;;;;4.68;98.38;100527.94;4860582;29;20511;-77
2022/03/08 10:28:57;;;;;;;30.67;13.27;;;;;;;4.45;98.34;100508.59;4876202;29;20124;-80
2022/03/08 10:31:23;;;;;;;23.60;10.90;;;;;;;4.35;97.26;100505.47;4876275;29;20074;-80
2022/03/08 10:33:50;;;;;;;20.60;10.20;;;;;;;4.16;100.00;100483.00;4876027;29;20040;-80
2022/03/08 10:36:23;;;;;;;9.65;6.85;;;;;;;4.43;100.00;100526.41;4875724;29;20455;-81
2022/03/08 10:39:08;;;;;;;9.77;6.72;;;;;;;4.22;98.33;100502.94;4875903;29;20520;-80
2022/03/08 10:41:39;;;;;;;10.57;7.07;;;;;;;4.23;98.11;100514.94;4873490;29;20037;-79
2022/03/08 10:44:05;;;;;;;10.25;6.80;;;;;;;4.14;99.13;100517.78;4876390;29;20084;-79
2022/03/08 10:46:30;;;;;;;12.43;7.50;;;;;;;4.19;99.71;100525.75;4873787;29;20138;-81
2022/03/08 10:48:55;;;;;;;11.75;7.55;;;;;;;4.15;97.46;100511.00;4873237;29;20060;-80
2022/03/08 10:51:21;;;;;;;11.82;9.27;;;;;;;4.28;98.40;100523.78;4877063;29;20481;-79
2022/03/08 10:53:47;;;;;;;12.13;9.13;;;;;;;4.35;99.54;100528.50;4894311;29;20496;-78
2022/03/08 10:56:23;;;;;;;11.40;8.77;;;;;;;4.13;97.77;100526.25;5001761;28;20465;-78
2022/03/08 10:58:51;;;;;;;9.70;7.70;;;;;;;4.12;97.83;100521.03;4976853;28;20057;-78
2022/03/08 11:01:18;;;;;;;12.88;9.40;;;;;;;4.23;98.78;100517.50;5005669;28;20058;-78
2022/03/08 11:03:57;;;;;;;25.25;15.27;;;;;;;4.28;99.28;100528.00;5005053;28;20037;-77
2022/03/08 11:06:26;;;;;;;27.13;18.52;;;;;;;4.43;97.92;100518.72;4988498;28;20531;-78
2022/03/08 11:08:52;;;;;;;11.85;8.55;;;;;;;4.58;97.40;100521.34;5003028;28;20030;-78
2022/03/08 11:11:20;;;;;;;24.30;19.23;;;;;;;4.34;99.48;100465.38;5000904;28;20125;-78
2022/03/08 11:13:54;;;;;;;19.85;15.63;;;;;;;4.67;97.94;100511.72;5009266;28;20111;-78